Overview Statistics Trail Chart Weather Telemetry Raw packets
 

This is the latest recevied weather packets stored in our database for station/object EB2EMZ-W. If no packets are shown the sender has not sent any weather packets the latest 10 day(s).

<< 1 2 3 4 >>
Time Temp. Humidity Pressure Rain* Wind** Luminosity Snow
1788625062 28.89° C 40% 1005 hPa 0 mm - - -
1788623241 29.44° C 38% 1006 hPa 0 mm - - -
1788621421 35.56° C 28% 1004 hPa 0 mm - - -
1788619601 31.11° C 31% 1005 hPa 0 mm - - -
1788617780 32.22° C 29% 1005 hPa 0 mm - - -
1788615961 31.67° C 30% 1006 hPa 0 mm - - -
1788614140 30.56° C 34% 1006 hPa 0 mm - - -
1788612319 30° C 33% 1007 hPa 0 mm - - -
1788610500 29.44° C 35% 1007 hPa 0 mm - - -
1788608678 29.44° C 35% 1007 hPa 0 mm - - -
1788606859 29.44° C 39% 1008 hPa 0 mm - - -
1788605038 26.67° C 45% 1008 hPa 0 mm - - -
1788603219 26.11° C 49% 1008 hPa 0 mm - - -
1788601409 25.56° C 50% 1010 hPa 0 mm - - -
1788599577 25° C 54% 1009 hPa 0 mm - - -
1788597757 24.44° C 59% 1009 hPa 0 mm - - -
1788595937 23.33° C 69% 1009 hPa 0 mm - - -
1788594117 21.67° C 79% 1009 hPa 0 mm - - -
1788592297 20.56° C 81% 1009 hPa 0 mm - - -
1788590477 20.56° C 80% 1008 hPa 0 mm - - -
1788586837 20.56° C 81% 1008 hPa 0 mm - - -
1788585016 20.56° C 80% 1008 hPa 0 mm - - -
1788583195 20.56° C 79% 1008 hPa 0 mm - - -
1788581375 21.11° C 77% 1008 hPa 0 mm - - -
1788579555 21.11° C 75% 1008 hPa 0 mm - - -

* Rain latest hour (hover to see other rain measurements)
** Current wind speed in m/s (hover to see current wind gust speed)